Data for 09/04/2008

Time Sea-Level Adjusted Pressure Absolute Pressure Temperature Relative Humidity Dew Point   
(mb) (inHg) (mb) (inHg) (C) (F) (%) (C) (F)
00:05 1021 30.15 850 25.1 9 48.1 61 1.9 35.5
00:10 1021 30.15 850 25.1 8.9 48.1 60 1.7 35.1
00:15 1021 30.15 850 25.1 9.1 48.4 60 1.8 35.3
00:20 1021 30.15 850 25.1 9.2 48.5 60 1.9 35.4
00:25 1021 30.15 850 25.1 9.1 48.3 62 2.3 36.2
00:30 1021 30.15 850 25.1 8.9 48 64 2.5 36.5
00:35 1021 30.15 850 25.1 8.7 47.7 65 2.5 36.5
00:40 1021 30.15 850 25.1 8.6 47.5 65 2.3 36.2
00:45 1021 30.15 850 25.1 8.5 47.3 66 2.6 36.7
00:50 1021 30.15 850 25.1 8.3 46.9 68 2.7 36.9
00:55 1021 30.15 850 25.1 8 46.4 69 2.6 36.7
01:00 1021 30.15 850 25.1 7.9 46.1 70 2.8 37.1
01:05 1021 30.15 850 25.1 7.4 45.3 74 3 37.4
01:10 1021 30.15 850 25.1 7.1 44.8 71 2.3 36.1
01:15 1021 30.15 850 25.1 7.4 45.3 67 1.8 35.2
01:20 1021 30.15 850 25.1 7.8 46.1 65 1.7 35.1
01:25 1021 30.15 850 25.1 7.9 46.3 65 1.8 35.2
01:30 1021 30.15 850 25.1 8 46.4 65 1.9 35.4
01:35 1021 30.15 850 25.1 7.9 46.2 67 2.2 36
01:40 1021 30.15 850 25.1 7.5 45.5 67 1.8 35.3
01:45 1021 30.15 850 25.1 7.7 45.9 65 1.7 35
01:50 1021 30.15 850 25.1 7.7 45.9 66 1.9 35.3
01:55 1021 30.15 850 25.1 7.6 45.6 66 1.7 35.1
02:00 1021 30.15 850 25.1 7.4 45.4 67 1.6 35
02:05 1021 30.15 850 25.1 7.4 45.3 67 1.7 35
02:10 1021 30.15 850 25.1 7.4 45.3 67 1.7 35
02:15 1021 30.15 850 25.1 7.3 45.1 66 1.4 34.6
02:20 1020 30.12 850 25.1 7.1 44.8 68 1.7 35
02:25 1020 30.12 850 25.1 7 44.6 66 1.1 34
02:30 1020 30.12 850 25.1 7.3 45.1 65 1.2 34.2
02:35 1020 30.12 850 25.1 7.1 44.8 67 1.4 34.5
02:40 1020 30.12 850 25.1 6.7 44.1 67 1.1 34
02:45 1020 30.12 850 25.1 7.2 44.9 62 0.5 32.8
02:50 1020 30.12 850 25.1 7.6 45.7 63 1.1 34
02:55 1020 30.12 850 25.1 7.2 44.9 64 0.7 33.3
03:00 1020 30.12 850 25.1 7 44.6 65 1 33.8
03:05 1020 30.12 850 25.1 6.8 44.3 66 1 33.8
03:10 1020 30.12 849 25.07 6.8 44.2 65 0.7 33.2
03:15 1020 30.12 849 25.07 6.9 44.4 64 0.5 32.9
03:20 1020 30.12 849 25.07 7.1 44.8 62 0.3 32.6
03:25 1020 30.12 850 25.1 7.5 45.5 60 0.2 32.4
03:30 1020 30.12 850 25.1 7.6 45.7 60 0.4 32.8
03:35 1020 30.12 849 25.07 7.5 45.4 61 0.5 32.8
03:40 1020 30.12 849 25.07 7.2 45 62 0.5 32.9
03:45 1020 30.12 849 25.07 7 44.5 63 0.3 32.6
03:50 1020 30.12 849 25.07 7 44.6 63 0.4 32.7
03:55 1020 30.12 849 25.07 6.9 44.4 62 0.2 32.3
04:00 1020 30.12 849 25.07 7 44.7 61 0 32
04:05 1020 30.12 850 25.1 7.1 44.9 62 0.3 32.5
04:10 1020 30.12 849 25.07 7 44.7 61 0.1 32.2
04:15 1020 30.12 849 25.07 7 44.5 62 0.2 32.3
04:20 1020 30.12 849 25.07 6.8 44.3 62 0 32.1
04:25 1020 30.12 849 25.07 7 44.6 61 0 32
04:30 1020 30.12 849 25.07 6.9 44.4 64 0.5 32.8
04:35 1020 30.12 849 25.07 6.6 43.8 65 0.5 32.8
04:40 1020 30.12 849 25.07 6.4 43.4 66 0.4 32.7
04:45 1020 30.12 849 25.07 6.5 43.6 65 0.3 32.5
04:50 1020 30.12 849 25.07 6.3 43.4 65 0.2 32.4
04:55 1020 30.12 849 25.07 6.2 43.2 67 0.5 32.9
05:00 1020 30.12 849 25.07 6 42.9 68 0.5 33
05:05 1020 30.12 849 25.07 6 42.7 68 0.6 33
05:10 1020 30.12 849 25.07 5.9 42.6 68 0.5 32.8
05:15 1020 30.12 849 25.07 6 42.8 66 0.1 32.1
05:20 1020 30.12 849 25.07 6.4 43.5 64 -0 32
05:25 1020 30.12 849 25.07 6.6 43.8 62 -0.2 31.7
05:30 1020 30.12 849 25.07 6.8 44.2 63 0.2 32.3
05:35 1020 30.12 849 25.07 6.6 43.8 64 0.2 32.4
05:40 1020 30.12 849 25.07 6.5 43.7 64 0.1 32.2
05:45 1020 30.12 849 25.07 6.6 43.9 64 0.4 32.6
05:50 1020 30.12 849 25.07 6.2 43.2 67 0.7 33.2
05:55 1020 30.12 849 25.07 5.9 42.7 65 -0.1 31.7
06:00 1020 30.12 849 25.07 6.3 43.4 64 0.1 32.2
06:05 1020 30.12 849 25.07 6.4 43.5 63 -0 31.9
06:10 1020 30.12 849 25.07 6.4 43.5 64 0 32
06:15 1020 30.12 849 25.07 6.4 43.5 63 0 32
06:20 1020 30.12 849 25.07 6.2 43.2 64 -0.1 31.8
06:25 1020 30.12 849 25.07 6.1 43 65 0.1 32.2
06:30 1020 30.12 849 25.07 6 42.8 66 0.1 32.3
06:35 1020 30.12 850 25.1 5.7 42.3 67 0.2 32.3
06:40 1020 30.12 850 25.1 5.7 42.2 67 0.1 32.1
06:45 1020 30.12 850 25.1 5.8 42.4 65 -0.2 31.6
06:50 1020 30.12 850 25.1 5.9 42.7 65 -0.2 31.7
06:55 1020 30.12 850 25.1 6.1 42.9 63 -0.3 31.4
07:00 1020 30.12 850 25.1 6.4 43.5 63 -0.2 31.7
07:05 1020 30.12 850 25.1 6.5 43.6 64 0.2 32.3
07:10 1021 30.15 850 25.1 6.3 43.4 63 -0.1 31.8
07:15 1021 30.15 850 25.1 6.5 43.6 63 0 32.1
07:20 1021 30.15 850 25.1 6.5 43.6 63 -0.1 31.8
07:25 1021 30.15 850 25.1 6.6 44 62 -0 32
07:30 1021 30.15 850 25.1 6.7 44 62 -0.1 31.8
07:35 1021 30.15 850 25.1 6.7 44.1 60 -0.4 31.3
07:40 1021 30.15 850 25.1 7 44.5 61 -0.1 31.8
07:45 1021 30.15 850 25.1 7.1 44.8 61 0.2 32.3
07:50 1021 30.15 850 25.1 7.3 45.1 63 0.7 33.3
07:55 1021 30.15 850 25.1 7.4 45.2 63 0.9 33.6
08:00 1021 30.15 850 25.1 7.6 45.7 61 0.6 33.1
08:05 1021 30.15 850 25.1 7.8 46 63 1.2 34.1
08:10 1021 30.15 850 25.1 7.9 46.1 62 1 33.8
08:15 1021 30.15 850 25.1 7.7 45.9 61 0.6 33.1
08:20 1021 30.15 850 25.1 7.6 45.6 64 1.2 34.1
08:25 1021 30.15 850 25.1 7.4 45.3 65 1.2 34.2
08:30 1021 30.15 850 25.1 7.5 45.4 63 1 33.8
08:35 1021 30.15 850 25.1 7.4 45.4 64 1.1 34
08:40 1021 30.15 850 25.1 7.7 45.8 63 1.2 34.1
08:45 1021 30.15 850 25.1 7.6 45.7 64 1.4 34.4
08:50 1021 30.15 850 25.1 7.7 45.9 63 1 33.8
08:55 1021 30.15 850 25.1 7.7 45.9 63 1.2 34.1
09:00 1021 30.15 850 25.1 7.9 46.3 62 1.1 34
09:05 1021 30.15 850 25.1 8.3 46.9 59 0.7 33.3
09:10 1021 30.15 850 25.1 8.4 47 59 0.8 33.5
09:15 1021 30.15 850 25.1 8.7 47.6 58 0.9 33.6
09:20 1021 30.15 850 25.1 8.7 47.7 58 1 33.8
09:25 1021 30.15 850 25.1 9.2 48.5 57 1.1 33.9
09:30 1021 30.15 850 25.1 9.5 49 56 1.2 34.2
09:35 1021 30.15 850 25.1 9.6 49.2 55 1.1 34
09:40 1021 30.15 850 25.1 9.9 49.7 54 1.2 34.1
09:45 1021 30.15 850 25.1 10.1 50.2 54 1.3 34.3
09:50 1021 30.15 850 25.1 10 50.1 54 1.1 34.1
09:55 1021 30.15 850 25.1 9.9 49.8 53 0.8 33.5
10:00 1021 30.15 850 25.1 9.8 49.6 52 0.4 32.8
10:05 1021 30.15 850 25.1 9.4 48.9 55 0.8 33.5
10:10 1021 30.15 850 25.1 9.4 49 54 0.7 33.3
10:15 1021 30.15 850 25.1 9.8 49.6 53 0.6 33.1
10:20 1021 30.15 850 25.1 10 50 53 0.9 33.6
10:25 1021 30.15 850 25.1 10.1 50.1 55 1.4 34.4
10:30 1021 30.15 851 25.13 10.1 50.2 55 1.4 34.6
10:35 1021 30.15 851 25.13 10.1 50.1 55 1.5 34.8
10:40 1021 30.15 851 25.13 10.1 50.1 55 1.4 34.5
10:45 1022 30.18 851 25.13 9.7 49.5 57 1.6 34.9
10:50 1022 30.18 851 25.13 9.8 49.6 57 1.8 35.2
10:55 1022 30.18 851 25.13 9.7 49.4 60 2.3 36.1
11:00 1022 30.18 851 25.13 9.4 48.8 60 2 35.6
11:05 1022 30.18 851 25.13 9.1 48.4 64 2.7 36.9
11:10 1022 30.18 851 25.13 8.6 47.4 73 4 39.3
11:15 1022 30.18 851 25.13 7.9 46.3 77 4.2 39.6
11:20 1022 30.18 851 25.13 7.6 45.8 83 4.9 40.8
11:25 1022 30.18 851 25.13 7.5 45.4 83 4.7 40.5
11:30 1022 30.18 851 25.13 7.5 45.4 80 4.2 39.6
11:35 1022 30.18 851 25.13 7.5 45.6 81 4.6 40.2
11:40 1022 30.18 851 25.13 7.8 46 80 4.5 40.2
11:45 1022 30.18 851 25.13 8 46.3 77 4.2 39.6
11:50 1022 30.18 851 25.13 8.2 46.8 74 3.9 39
11:55 1022 30.18 851 25.13 8.4 47.1 76 4.4 39.9
12:00 1022 30.18 851 25.13 8.5 47.2 72 3.7 38.6
12:05 1022 30.18 851 25.13 8.4 47.1 78 4.8 40.6
12:10 1022 30.18 851 25.13 7.9 46.2 81 4.9 40.9
12:15 1022 30.18 851 25.13 8 46.3 81 4.9 40.8
12:20 1022 30.18 851 25.13 7.9 46.2 84 5.3 41.5
12:25 1022 30.18 851 25.13 7.3 45.1 83 4.6 40.3
12:30 1022 30.18 851 25.13 7.1 44.7 82 4.3 39.7
12:35 1022 30.18 851 25.13 7.1 44.7 82 4.3 39.7
12:40 1021 30.15 851 25.13 7.1 44.7 86 4.8 40.7
12:45 1021 30.15 851 25.13 7.5 45.5 81 4.4 39.9
12:50 1021 30.15 851 25.13 7.8 46 81 4.7 40.5
12:55 1021 30.15 851 25.13 8.5 47.3 79 5 41.1
13:00 1021 30.15 851 25.13 8.8 47.9 76 4.9 40.8
13:05 1021 30.15 850 25.1 9.1 48.4 71 4 39.3
13:10 1021 30.15 850 25.1 8.7 47.6 72 3.9 39
13:15 1021 30.15 850 25.1 9.1 48.4 69 3.7 38.7
13:20 1021 30.15 850 25.1 9.3 48.8 67 3.6 38.4
13:25 1021 30.15 850 25.1 10 49.9 64 3.5 38.4
13:30 1021 30.15 850 25.1 10.5 50.9 61 3.3 38
13:35 1021 30.15 850 25.1 10.5 50.9 62 3.6 38.5
13:40 1021 30.15 850 25.1 10.6 51.1 57 2.4 36.4
13:45 1021 30.15 850 25.1 10.7 51.3 58 2.9 37.1
13:50 1021 30.15 850 25.1 11.5 52.8 54 2.5 36.6
13:55 1021 30.15 850 25.1 12.1 53.7 53 2.7 36.9
14:00 1021 30.15 850 25.1 12.3 54.1 54 3.3 38
14:05 1021 30.15 850 25.1 12.8 55.1 50 2.7 36.8
14:10 1021 30.15 850 25.1 13.2 55.8 45 1.8 35.2
14:15 1021 30.15 850 25.1 13.2 55.8 46 2 35.6
14:20 1021 30.15 850 25.1 13.6 56.6 42 1.1 33.9
14:25 1021 30.15 850 25.1 13.9 57 43 1.5 34.7
14:30 1021 30.15 850 25.1 14.4 57.8 44 2.2 36
14:35 1021 30.15 850 25.1 13.9 57 46 2.6 36.7
14:40 1021 30.15 850 25.1 14.2 57.6 40 0.9 33.7
14:45 1021 30.15 850 25.1 14.5 58 41 1.3 34.4
14:50 1021 30.15 850 25.1 14.2 57.6 42 1.6 34.9
14:55 1021 30.15 850 25.1 13.9 57 42 1.4 34.5
15:00 1021 30.15 850 25.1 13.7 56.7 43 1.4 34.6
15:05 1021 30.15 850 25.1 13.6 56.5 43 1.4 34.4
15:10 1021 30.15 850 25.1 14 57.3 45 2.4 36.3
15:15 1021 30.15 850 25.1 14.4 57.9 44 2.3 36.2
15:20 1021 30.15 850 25.1 14 57.3 44 1.9 35.5
15:25 1021 30.15 850 25.1 14 57.2 45 2.3 36.1
15:30 1021 30.15 850 25.1 13.8 56.9 46 2.5 36.4
15:35 1021 30.15 850 25.1 13.7 56.7 45 1.9 35.5
15:40 1021 30.15 850 25.1 13.8 56.8 44 1.9 35.4
15:45 1021 30.15 850 25.1 14.1 57.3 44 2 35.6
15:50 1021 30.15 850 25.1 14.1 57.5 42 1.6 34.9
15:55 1021 30.15 850 25.1 14.1 57.3 43 1.6 34.9
16:00 1021 30.15 850 25.1 14.2 57.5 44 2 35.7
16:05 1021 30.15 850 25.1 14.3 57.7 41 1.4 34.5
16:10 1021 30.15 850 25.1 14.7 58.4 40 1.2 34.2
16:15 1021 30.15 850 25.1 14.9 58.8 39 1.3 34.3
16:20 1021 30.15 850 25.1 14.4 57.8 42 1.9 35.3
16:25 1021 30.15 850 25.1 13.4 56.1 46 2.2 36
16:30 1021 30.15 850 25.1 12.8 55.1 46 1.5 34.8
16:35 1021 30.15 850 25.1 12.5 54.4 46 1.3 34.3
16:40 1021 30.15 850 25.1 12.8 55 45 1.1 34
16:45 1021 30.15 850 25.1 12.6 54.6 47 1.6 34.8
16:50 1021 30.15 850 25.1 12.8 55.1 45 1.4 34.5
16:55 1021 30.15 850 25.1 13 55.4 45 1.3 34.4
17:00 1021 30.15 850 25.1 13.2 55.8 44 1.4 34.4
17:05 1021 30.15 850 25.1 12.9 55.1 44 1.1 33.9
17:10 1021 30.15 850 25.1 12.9 55.2 45 1.2 34.2
17:15 1021 30.15 850 25.1 13.3 55.9 43 1.1 33.9
17:20 1021 30.15 850 25.1 13 55.3 46 1.7 35
17:25 1021 30.15 850 25.1 12.7 54.9 45 1.2 34.2
17:30 1021 30.15 850 25.1 12.8 55.1 45 1.4 34.5
17:35 1021 30.15 850 25.1 12.8 55 44 1.1 33.9
17:40 1021 30.15 850 25.1 12.9 55.2 43 0.7 33.2
17:45 1021 30.15 850 25.1 12.8 55 43 0.8 33.4
17:50 1021 30.15 850 25.1 12.7 54.9 42 0.3 32.5
17:55 1021 30.15 850 25.1 12.5 54.4 43 0.4 32.7
18:00 1021 30.15 850 25.1 12.3 54.1 45 0.6 33.1
18:05 1021 30.15 850 25.1 12.2 54 46 0.8 33.5
18:10 1021 30.15 850 25.1 12 53.7 45 0.7 33.2
18:15 1021 30.15 850 25.1 12.2 54 46 1 33.8
18:20 1021 30.15 850 25.1 12.3 54.1 46 1.1 33.9
18:25 1021 30.15 850 25.1 12.1 53.9 47 1.2 34.1
18:30 1021 30.15 850 25.1 12.4 54.3 46 1 33.9
18:35 1021 30.15 850 25.1 12.6 54.7 45 0.9 33.7
18:40 1021 30.15 850 25.1 12.3 54.2 46 1.2 34.1
18:45 1021 30.15 850 25.1 12.2 53.9 47 1.2 34.2
18:50 1021 30.15 850 25.1 12.5 54.5 46 1.3 34.3
18:55 1021 30.15 850 25.1 12.4 54.3 48 1.7 35.1
19:00 1021 30.15 850 25.1 12.2 53.9 48 1.5 34.8
19:05 1021 30.15 850 25.1 12.4 54.3 49 2.1 35.9
19:10 1021 30.15 850 25.1 12.5 54.4 50 2.3 36.2
19:15 1021 30.15 850 25.1 12.4 54.3 50 2.4 36.3
19:20 1021 30.15 850 25.1 12.3 54.2 51 2.5 36.6
19:25 1021 30.15 850 25.1 12.1 53.8 52 2.7 36.9
19:30 1021 30.15 850 25.1 12 53.6 53 2.9 37.2
19:35 1021 30.15 850 25.1 11.5 52.7 55 2.9 37.3
19:40 1021 30.15 850 25.1 11.3 52.4 55 2.7 36.8
19:45 1021 30.15 850 25.1 11.2 52.1 57 2.9 37.3
19:50 1021 30.15 850 25.1 11 51.8 59 3.4 38.1
19:55 1021 30.15 851 25.13 10.8 51.4 59 3.2 37.7
20:00 1021 30.15 851 25.13 10.7 51.3 60 3.2 37.8
20:05 1021 30.15 851 25.13 10.7 51.3 61 3.4 38.2
20:10 1022 30.18 851 25.13 10.5 51 62 3.6 38.5
20:15 1022 30.18 851 25.13 10.4 50.6 63 3.8 38.8
20:20 1022 30.18 851 25.13 10.2 50.3 64 3.7 38.7
20:25 1022 30.18 851 25.13 10 50.1 65 3.7 38.7
20:30 1022 30.18 851 25.13 10 49.9 64 3.6 38.5
20:35 1022 30.18 851 25.13 9.9 49.9 64 3.5 38.3
20:40 1022 30.18 851 25.13 9.9 49.9 64 3.6 38.4
20:45 1022 30.18 851 25.13 9.9 49.7 65 3.6 38.6
20:50 1022 30.18 851 25.13 9.8 49.6 65 3.6 38.5
20:55 1022 30.18 851 25.13 9.8 49.6 66 3.8 38.8
21:00 1022 30.18 851 25.13 9.7 49.5 66 3.6 38.5
21:05 1022 30.18 851 25.13 9.6 49.4 67 3.8 38.9
21:10 1022 30.18 851 25.13 9.2 48.5 67 3.4 38.1
21:15 1022 30.18 851 25.13 9 48.2 70 3.8 38.8
21:20 1022 30.18 851 25.13 8.8 47.8 71 3.8 38.8
21:25 1022 30.18 851 25.13 8.6 47.5 75 4.4 40
21:30 1022 30.18 851 25.13 8.3 46.9 76 4.2 39.6
21:35 1022 30.18 851 25.13 8.3 46.9 75 4.2 39.5
21:40 1022 30.18 851 25.13 8.4 47.2 74 4.2 39.5
21:45 1022 30.18 851 25.13 8.5 47.2 75 4.3 39.8
21:50 1022 30.18 851 25.13 8.3 47 74 4.1 39.3
21:55 1022 30.18 851 25.13 8.4 47.1 74 4.1 39.3
22:00 1022 30.18 851 25.13 8.5 47.3 73 4.1 39.3
22:05 1022 30.18 852 25.16 8.5 47.3 74 4.2 39.6
22:10 1022 30.18 851 25.13 8.5 47.2 74 4.2 39.5
22:15 1022 30.18 851 25.13 8.5 47.4 74 4.2 39.6
22:20 1022 30.18 851 25.13 8.6 47.4 74 4.2 39.6
22:25 1022 30.18 851 25.13 8.6 47.5 73 4.1 39.4
22:30 1022 30.18 851 25.13 8.5 47.4 74 4.2 39.5
22:35 1022 30.18 851 25.13 8.4 47.1 74 4 39.3
22:40 1022 30.18 851 25.13 8.2 46.8 74 3.9 39.1
22:45 1022 30.18 852 25.16 8.1 46.7 74 3.9 39
22:50 1022 30.18 852 25.16 8 46.3 76 3.9 39.1
22:55 1022 30.18 852 25.16 7.9 46.1 74 3.6 38.5
23:00 1022 30.18 852 25.16 8.1 46.6 74 3.8 38.8
23:05 1022 30.18 852 25.16 8 46.5 76 4 39.2
23:10 1022 30.18 852 25.16 7.8 46 76 3.8 38.9
23:15 1022 30.18 852 25.16 8 46.4 75 3.8 38.9
23:20 1022 30.18 852 25.16 8 46.4 77 4.2 39.6
23:25 1022 30.18 852 25.16 8 46.5 76 4.1 39.4
23:30 1022 30.18 852 25.16 8 46.4 76 4.1 39.4
23:35 1022 30.18 852 25.16 8 46.3 76 4.1 39.3
23:40 1022 30.18 852 25.16 7.9 46.1 77 4 39.3
23:45 1022 30.18 852 25.16 7.6 45.8 78 4.1 39.4
23:50 1022 30.18 852 25.16 7.5 45.5 79 4 39.2
23:55 1022 30.18 852 25.16 7.4 45.2 80 4.1 39.3
24:00 1022 30.18 852 25.16 7.2 44.9 81 4 39.3